sensor_id;sensor_type;location;lat;lon;timestamp;pressure;altitude;pressure_sealevel;temperature;humidity
12949;BME280;6539;49.476;8.484;2023-03-19T00:00:31;100197.19;;;15.38;42.63
12949;BME280;6539;49.476;8.484;2023-03-19T00:02:56;100201.06;;;15.40;42.58
12949;BME280;6539;49.476;8.484;2023-03-19T00:05:24;100201.75;;;15.44;42.72
12949;BME280;6539;49.476;8.484;2023-03-19T00:07:52;100199.78;;;15.45;42.79
12949;BME280;6539;49.476;8.484;2023-03-19T00:10:18;100195.88;;;15.42;42.74
12949;BME280;6539;49.476;8.484;2023-03-19T00:12:47;100200.66;;;15.42;43.06
12949;BME280;6539;49.476;8.484;2023-03-19T00:15:12;100203.09;;;15.40;42.88
12949;BME280;6539;49.476;8.484;2023-03-19T00:17:41;100201.84;;;15.41;43.01
12949;BME280;6539;49.476;8.484;2023-03-19T00:20:11;100206.88;;;15.46;43.08
12949;BME280;6539;49.476;8.484;2023-03-19T00:22:40;100205.31;;;15.45;43.04
12949;BME280;6539;49.476;8.484;2023-03-19T00:25:07;100213.38;;;15.39;43.22
12949;BME280;6539;49.476;8.484;2023-03-19T00:27:37;100209.59;;;15.33;43.59
12949;BME280;6539;49.476;8.484;2023-03-19T00:30:05;100207.16;;;15.35;43.52
12949;BME280;6539;49.476;8.484;2023-03-19T00:32:34;100214.69;;;15.35;43.70
12949;BME280;6539;49.476;8.484;2023-03-19T00:35:04;100209.59;;;15.33;43.52
12949;BME280;6539;49.476;8.484;2023-03-19T00:37:34;100210.81;;;15.32;43.72
12949;BME280;6539;49.476;8.484;2023-03-19T00:40:01;100206.94;;;15.29;43.79
12949;BME280;6539;49.476;8.484;2023-03-19T00:42:26;100216.88;;;15.27;43.80
12949;BME280;6539;49.476;8.484;2023-03-19T00:44:52;100213.38;;;15.26;43.94
12949;BME280;6539;49.476;8.484;2023-03-19T00:47:18;100219.31;;;15.25;43.92
12949;BME280;6539;49.476;8.484;2023-03-19T00:49:47;100214.78;;;15.18;44.13
12949;BME280;6539;49.476;8.484;2023-03-19T00:52:15;100214.88;;;15.15;44.30
12949;BME280;6539;49.476;8.484;2023-03-19T00:54:43;100212.13;;;15.15;44.24
12949;BME280;6539;49.476;8.484;2023-03-19T00:57:09;100204.59;;;15.15;44.49
12949;BME280;6539;49.476;8.484;2023-03-19T00:59:40;100208.91;;;15.16;44.62
12949;BME280;6539;49.476;8.484;2023-03-19T01:02:06;100207.72;;;15.17;44.50
12949;BME280;6539;49.476;8.484;2023-03-19T01:04:34;100211.69;;;15.16;44.53
12949;BME280;6539;49.476;8.484;2023-03-19T01:07:02;100220.09;;;15.13;44.71
12949;BME280;6539;49.476;8.484;2023-03-19T01:09:31;100221.28;;;14.99;45.32
12949;BME280;6539;49.476;8.484;2023-03-19T01:12:00;100224.94;;;14.96;45.56
12949;BME280;6539;49.476;8.484;2023-03-19T01:14:30;100228.56;;;14.93;45.68
12949;BME280;6539;49.476;8.484;2023-03-19T01:16:59;100222.38;;;14.89;46.05
12949;BME280;6539;49.476;8.484;2023-03-19T01:19:25;100218.59;;;14.83;46.63
12949;BME280;6539;49.476;8.484;2023-03-19T01:21:54;100218.13;;;14.72;46.92
12949;BME280;6539;49.476;8.484;2023-03-19T01:24:20;100218.94;;;14.57;47.33
12949;BME280;6539;49.476;8.484;2023-03-19T01:26:46;100224.28;;;14.64;47.30
12949;BME280;6539;49.476;8.484;2023-03-19T01:29:12;100226.38;;;14.60;47.47
12949;BME280;6539;49.476;8.484;2023-03-19T01:31:38;100221.59;;;14.60;47.63
12949;BME280;6539;49.476;8.484;2023-03-19T01:34:05;100224.94;;;14.68;47.67
12949;BME280;6539;49.476;8.484;2023-03-19T01:36:31;100223.72;;;14.69;47.68
12949;BME280;6539;49.476;8.484;2023-03-19T01:38:58;100225.13;;;14.61;48.19
12949;BME280;6539;49.476;8.484;2023-03-19T01:41:26;100219.53;;;14.64;48.16
12949;BME280;6539;49.476;8.484;2023-03-19T01:43:52;100223.38;;;14.67;48.17
12949;BME280;6539;49.476;8.484;2023-03-19T01:46:33;100230.47;;;14.68;48.28
12949;BME280;6539;49.476;8.484;2023-03-19T01:49:05;100220.28;;;14.65;48.35
12949;BME280;6539;49.476;8.484;2023-03-19T01:51:40;100219.44;;;14.68;48.27
12949;BME280;6539;49.476;8.484;2023-03-19T01:54:14;100210.59;;;14.73;48.05
12949;BME280;6539;49.476;8.484;2023-03-19T01:56:44;100220.88;;;14.72;48.06
12949;BME280;6539;49.476;8.484;2023-03-19T01:59:34;100218.44;;;14.74;48.10
12949;BME280;6539;49.476;8.484;2023-03-19T02:04:39;100228.88;;;14.83;47.98
12949;BME280;6539;49.476;8.484;2023-03-19T02:07:08;100225.25;;;14.86;47.91
12949;BME280;6539;49.476;8.484;2023-03-19T02:09:36;100230.00;;;14.85;47.54
12949;BME280;6539;49.476;8.484;2023-03-19T02:12:06;100230.47;;;14.68;48.00
12949;BME280;6539;49.476;8.484;2023-03-19T02:14:32;100237.66;;;14.65;48.21
12949;BME280;6539;49.476;8.484;2023-03-19T02:17:00;100240.84;;;14.64;48.15
12949;BME280;6539;49.476;8.484;2023-03-19T02:22:21;100250.59;;;14.39;48.96
12949;BME280;6539;49.476;8.484;2023-03-19T02:27:22;100242.66;;;14.25;49.59
12949;BME280;6539;49.476;8.484;2023-03-19T02:29:48;100244.19;;;14.26;49.52
12949;BME280;6539;49.476;8.484;2023-03-19T02:32:16;100247.66;;;14.30;49.46
12949;BME280;6539;49.476;8.484;2023-03-19T02:34:43;100249.78;;;14.39;49.61
12949;BME280;6539;49.476;8.484;2023-03-19T02:37:19;100240.53;;;14.45;49.51
12949;BME280;6539;49.476;8.484;2023-03-19T02:39:59;100243.66;;;14.47;49.38
12949;BME280;6539;49.476;8.484;2023-03-19T02:42:29;100240.47;;;14.49;49.12
12949;BME280;6539;49.476;8.484;2023-03-19T02:44:56;100247.53;;;14.50;49.41
12949;BME280;6539;49.476;8.484;2023-03-19T02:47:25;100248.88;;;14.58;48.92
12949;BME280;6539;49.476;8.484;2023-03-19T02:49:52;100244.94;;;14.59;49.11
12949;BME280;6539;49.476;8.484;2023-03-19T02:52:20;100248.38;;;14.63;49.17
12949;BME280;6539;49.476;8.484;2023-03-19T02:54:46;100244.81;;;14.63;49.19
12949;BME280;6539;49.476;8.484;2023-03-19T02:57:13;100248.22;;;14.54;49.56
12949;BME280;6539;49.476;8.484;2023-03-19T02:59:41;100258.41;;;14.57;49.24
12949;BME280;6539;49.476;8.484;2023-03-19T03:02:09;100256.25;;;14.48;49.76
12949;BME280;6539;49.476;8.484;2023-03-19T03:04:35;100267.72;;;14.47;49.73
12949;BME280;6539;49.476;8.484;2023-03-19T03:07:03;100257.47;;;14.47;50.01
12949;BME280;6539;49.476;8.484;2023-03-19T03:09:29;100258.25;;;14.48;50.04
12949;BME280;6539;49.476;8.484;2023-03-19T03:11:55;100257.72;;;14.53;50.07
12949;BME280;6539;49.476;8.484;2023-03-19T03:14:24;100258.75;;;14.59;49.85
12949;BME280;6539;49.476;8.484;2023-03-19T03:16:50;100256.75;;;14.60;49.98
12949;BME280;6539;49.476;8.484;2023-03-19T03:19:16;100253.66;;;14.58;50.01
12949;BME280;6539;49.476;8.484;2023-03-19T03:21:44;100260.38;;;14.57;50.19
12949;BME280;6539;49.476;8.484;2023-03-19T03:24:10;100262.91;;;14.51;50.43
12949;BME280;6539;49.476;8.484;2023-03-19T03:26:36;100270.50;;;14.47;50.85
12949;BME280;6539;49.476;8.484;2023-03-19T03:29:05;100272.91;;;14.45;50.93
12949;BME280;6539;49.476;8.484;2023-03-19T03:31:31;100261.84;;;14.45;50.83
12949;BME280;6539;49.476;8.484;2023-03-19T03:34:00;100277.56;;;14.48;50.76
12949;BME280;6539;49.476;8.484;2023-03-19T03:36:28;100270.50;;;14.47;51.05
12949;BME280;6539;49.476;8.484;2023-03-19T03:38:54;100276.72;;;14.51;50.82
12949;BME280;6539;49.476;8.484;2023-03-19T03:41:20;100276.91;;;14.44;51.11
12949;BME280;6539;49.476;8.484;2023-03-19T03:43:46;100279.31;;;14.42;51.52
12949;BME280;6539;49.476;8.484;2023-03-19T03:46:12;100282.53;;;14.40;51.72
12949;BME280;6539;49.476;8.484;2023-03-19T03:48:38;100275.44;;;14.39;51.60
12949;BME280;6539;49.476;8.484;2023-03-19T03:51:06;100280.09;;;14.42;51.60
12949;BME280;6539;49.476;8.484;2023-03-19T03:53:34;100283.47;;;14.34;51.62
12949;BME280;6539;49.476;8.484;2023-03-19T03:56:02;100275.63;;;14.32;51.98
12949;BME280;6539;49.476;8.484;2023-03-19T03:58:28;100282.94;;;14.39;51.72
12949;BME280;6539;49.476;8.484;2023-03-19T04:00:56;100283.09;;;14.32;51.87
12949;BME280;6539;49.476;8.484;2023-03-19T04:03:26;100283.63;;;14.27;52.09
12949;BME280;6539;49.476;8.484;2023-03-19T04:05:52;100276.53;;;14.26;52.20
12949;BME280;6539;49.476;8.484;2023-03-19T04:08:20;100283.09;;;14.32;52.28
12949;BME280;6539;49.476;8.484;2023-03-19T04:10:47;100290.09;;;14.36;51.76
12949;BME280;6539;49.476;8.484;2023-03-19T04:13:12;100288.13;;;14.37;51.65
12949;BME280;6539;49.476;8.484;2023-03-19T04:15:42;100287.00;;;14.34;52.03
12949;BME280;6539;49.476;8.484;2023-03-19T04:18:08;100294.88;;;14.36;51.92
12949;BME280;6539;49.476;8.484;2023-03-19T04:20:36;100304.34;;;14.35;52.24
12949;BME280;6539;49.476;8.484;2023-03-19T04:23:04;100301.34;;;14.29;52.58
12949;BME280;6539;49.476;8.484;2023-03-19T04:25:34;100300.91;;;14.31;52.67
12949;BME280;6539;49.476;8.484;2023-03-19T04:28:03;100307.97;;;14.32;52.80
12949;BME280;6539;49.476;8.484;2023-03-19T04:30:29;100314.19;;;14.36;52.94
12949;BME280;6539;49.476;8.484;2023-03-19T04:32:54;100310.22;;;14.37;53.03
12949;BME280;6539;49.476;8.484;2023-03-19T04:35:21;100308.69;;;14.36;53.01
12949;BME280;6539;49.476;8.484;2023-03-19T04:37:47;100308.75;;;14.32;53.06
12949;BME280;6539;49.476;8.484;2023-03-19T04:40:18;100311.50;;;14.16;53.62
12949;BME280;6539;49.476;8.484;2023-03-19T04:42:46;100311.84;;;14.18;53.75
12949;BME280;6539;49.476;8.484;2023-03-19T04:45:12;100312.88;;;14.24;53.45
12949;BME280;6539;49.476;8.484;2023-03-19T04:47:38;100314.88;;;14.08;53.83
12949;BME280;6539;49.476;8.484;2023-03-19T04:50:07;100317.88;;;13.97;53.98
12949;BME280;6539;49.476;8.484;2023-03-19T04:52:36;100311.28;;;13.91;54.08
12949;BME280;6539;49.476;8.484;2023-03-19T04:55:06;100317.34;;;13.86;54.48
12949;BME280;6539;49.476;8.484;2023-03-19T04:57:32;100320.84;;;13.87;54.56
12949;BME280;6539;49.476;8.484;2023-03-19T05:00:03;100315.34;;;13.87;54.66
12949;BME280;6539;49.476;8.484;2023-03-19T05:02:31;100323.63;;;13.87;54.96
12949;BME280;6539;49.476;8.484;2023-03-19T05:04:56;100315.19;;;13.94;54.66
12949;BME280;6539;49.476;8.484;2023-03-19T05:07:24;100318.81;;;13.91;54.69
12949;BME280;6539;49.476;8.484;2023-03-19T05:09:50;100321.72;;;13.84;55.00
12949;BME280;6539;49.476;8.484;2023-03-19T05:12:16;100321.47;;;13.94;54.70
12949;BME280;6539;49.476;8.484;2023-03-19T05:14:42;100313.22;;;13.94;54.81
12949;BME280;6539;49.476;8.484;2023-03-19T05:17:10;100312.69;;;13.99;54.64
12949;BME280;6539;49.476;8.484;2023-03-19T05:19:37;100314.06;;;14.07;54.68
12949;BME280;6539;49.476;8.484;2023-03-19T05:22:05;100321.50;;;14.10;54.56
12949;BME280;6539;49.476;8.484;2023-03-19T05:24:31;100327.78;;;14.11;54.60
12949;BME280;6539;49.476;8.484;2023-03-19T05:26:56;100327.09;;;14.07;54.57
12949;BME280;6539;49.476;8.484;2023-03-19T05:29:22;100330.91;;;14.13;54.67
12949;BME280;6539;49.476;8.484;2023-03-19T05:31:48;100325.72;;;14.15;54.26
12949;BME280;6539;49.476;8.484;2023-03-19T05:34:14;100328.81;;;14.17;54.39
12949;BME280;6539;49.476;8.484;2023-03-19T05:36:40;100325.66;;;14.18;54.56
12949;BME280;6539;49.476;8.484;2023-03-19T05:39:08;100319.34;;;14.18;54.17
12949;BME280;6539;49.476;8.484;2023-03-19T05:41:34;100335.06;;;14.21;54.20
12949;BME280;6539;49.476;8.484;2023-03-19T05:44:03;100337.81;;;14.21;54.40
12949;BME280;6539;49.476;8.484;2023-03-19T05:46:31;100344.88;;;14.22;53.97
12949;BME280;6539;49.476;8.484;2023-03-19T05:48:57;100340.94;;;14.23;53.92
12949;BME280;6539;49.476;8.484;2023-03-19T05:51:32;100344.44;;;14.23;54.22
12949;BME280;6539;49.476;8.484;2023-03-19T05:54:00;100354.72;;;14.23;54.17
12949;BME280;6539;49.476;8.484;2023-03-19T05:56:26;100351.63;;;14.21;54.17
12949;BME280;6539;49.476;8.484;2023-03-19T05:58:54;100351.88;;;14.26;54.24
12949;BME280;6539;49.476;8.484;2023-03-19T06:01:23;100356.63;;;14.26;54.20
12949;BME280;6539;49.476;8.484;2023-03-19T06:03:49;100349.97;;;14.23;54.40
12949;BME280;6539;49.476;8.484;2023-03-19T06:06:15;100346.78;;;14.25;54.30
12949;BME280;6539;49.476;8.484;2023-03-19T06:08:41;100359.38;;;14.26;54.58
12949;BME280;6539;49.476;8.484;2023-03-19T06:11:08;100358.78;;;14.18;54.39
12949;BME280;6539;49.476;8.484;2023-03-19T06:13:33;100358.94;;;14.11;54.82
12949;BME280;6539;49.476;8.484;2023-03-19T06:16:00;100354.44;;;14.01;55.24
12949;BME280;6539;49.476;8.484;2023-03-19T06:18:28;100357.47;;;14.07;54.99
12949;BME280;6539;49.476;8.484;2023-03-19T06:21:00;100364.38;;;13.99;55.42
12949;BME280;6539;49.476;8.484;2023-03-19T06:23:29;100358.75;;;14.02;55.40
12949;BME280;6539;49.476;8.484;2023-03-19T06:25:57;100371.22;;;14.10;55.60
12949;BME280;6539;49.476;8.484;2023-03-19T06:28:27;100368.34;;;14.14;55.39
12949;BME280;6539;49.476;8.484;2023-03-19T06:30:57;100377.81;;;14.13;55.51
12949;BME280;6539;49.476;8.484;2023-03-19T06:33:25;100378.69;;;14.10;55.76
12949;BME280;6539;49.476;8.484;2023-03-19T06:35:57;100380.25;;;14.11;55.66
12949;BME280;6539;49.476;8.484;2023-03-19T06:38:25;100379.75;;;14.16;55.50
12949;BME280;6539;49.476;8.484;2023-03-19T06:40:51;100379.31;;;14.17;55.89
12949;BME280;6539;49.476;8.484;2023-03-19T06:43:17;100381.66;;;14.19;55.88
12949;BME280;6539;49.476;8.484;2023-03-19T06:45:45;100374.72;;;14.11;56.12
12949;BME280;6539;49.476;8.484;2023-03-19T06:48:14;100375.34;;;14.18;56.07
12949;BME280;6539;49.476;8.484;2023-03-19T06:50:40;100382.00;;;14.21;55.84
12949;BME280;6539;49.476;8.484;2023-03-19T06:53:09;100385.09;;;14.23;55.85
12949;BME280;6539;49.476;8.484;2023-03-19T06:55:35;100389.28;;;14.31;55.76
12949;BME280;6539;49.476;8.484;2023-03-19T06:58:02;100395.41;;;14.38;55.51
12949;BME280;6539;49.476;8.484;2023-03-19T07:00:28;100392.63;;;14.38;55.53
12949;BME280;6539;49.476;8.484;2023-03-19T07:02:56;100394.78;;;14.31;55.50
12949;BME280;6539;49.476;8.484;2023-03-19T07:05:22;100388.84;;;14.32;55.20
12949;BME280;6539;49.476;8.484;2023-03-19T07:07:47;100393.41;;;14.39;54.67
12949;BME280;6539;49.476;8.484;2023-03-19T07:10:13;100398.38;;;14.28;55.11
12949;BME280;6539;49.476;8.484;2023-03-19T07:12:39;100401.13;;;14.28;55.02
12949;BME280;6539;49.476;8.484;2023-03-19T07:15:06;100400.22;;;14.34;54.41
12949;BME280;6539;49.476;8.484;2023-03-19T07:17:32;100407.56;;;14.41;54.43
12949;BME280;6539;49.476;8.484;2023-03-19T07:19:57;100416.28;;;14.39;54.38
12949;BME280;6539;49.476;8.484;2023-03-19T07:22:23;100410.53;;;14.34;54.61
12949;BME280;6539;49.476;8.484;2023-03-19T07:24:51;100414.91;;;14.31;54.82
12949;BME280;6539;49.476;8.484;2023-03-19T07:27:20;100415.00;;;14.44;54.57
12949;BME280;6539;49.476;8.484;2023-03-19T07:29:46;100419.25;;;14.48;54.49
12949;BME280;6539;49.476;8.484;2023-03-19T07:32:12;100415.50;;;14.39;54.66
12949;BME280;6539;49.476;8.484;2023-03-19T07:34:42;100418.97;;;14.43;54.11
12949;BME280;6539;49.476;8.484;2023-03-19T07:37:08;100419.84;;;14.40;53.83
12949;BME280;6539;49.476;8.484;2023-03-19T07:39:34;100419.84;;;14.40;54.07
12949;BME280;6539;49.476;8.484;2023-03-19T07:42:00;100423.44;;;14.37;53.59
12949;BME280;6539;49.476;8.484;2023-03-19T07:44:28;100424.69;;;14.36;53.56
12949;BME280;6539;49.476;8.484;2023-03-19T07:46:54;100414.06;;;14.50;53.65
12949;BME280;6539;49.476;8.484;2023-03-19T07:49:23;100422.78;;;14.49;53.21
12949;BME280;6539;49.476;8.484;2023-03-19T07:51:51;100417.66;;;14.47;53.51
12949;BME280;6539;49.476;8.484;2023-03-19T07:54:17;100423.19;;;14.47;53.36
12949;BME280;6539;49.476;8.484;2023-03-19T07:56:45;100417.66;;;14.47;53.41
12949;BME280;6539;49.476;8.484;2023-03-19T07:59:11;100414.91;;;14.47;53.54
12949;BME280;6539;49.476;8.484;2023-03-19T08:01:37;100419.84;;;14.56;53.19
12949;BME280;6539;49.476;8.484;2023-03-19T08:04:03;100406.81;;;14.57;53.12
12949;BME280;6539;49.476;8.484;2023-03-19T08:06:33;100401.53;;;14.62;53.01
12949;BME280;6539;49.476;8.484;2023-03-19T08:08:59;100410.19;;;14.64;52.97
12949;BME280;6539;49.476;8.484;2023-03-19T08:11:24;100412.56;;;14.78;52.37
12949;BME280;6539;49.476;8.484;2023-03-19T08:13:50;100413.78;;;14.93;51.81
12949;BME280;6539;49.476;8.484;2023-03-19T08:16:16;100415.47;;;15.03;51.04
12949;BME280;6539;49.476;8.484;2023-03-19T08:18:44;100413.75;;;15.09;51.15
12949;BME280;6539;49.476;8.484;2023-03-19T08:21:10;100426.00;;;15.08;51.02
12949;BME280;6539;49.476;8.484;2023-03-19T08:23:38;100415.28;;;15.10;50.84
12949;BME280;6539;49.476;8.484;2023-03-19T08:26:04;100410.19;;;15.38;50.41
12949;BME280;6539;49.476;8.484;2023-03-19T08:28:32;100423.91;;;15.57;49.81
12949;BME280;6539;49.476;8.484;2023-03-19T08:31:11;100420.97;;;15.77;48.85
12949;BME280;6539;49.476;8.484;2023-03-19T08:33:39;100425.44;;;15.87;48.47
12949;BME280;6539;49.476;8.484;2023-03-19T08:36:12;100424.00;;;15.95;48.62
12949;BME280;6539;49.476;8.484;2023-03-19T08:38:39;100425.91;;;16.11;47.99
12949;BME280;6539;49.476;8.484;2023-03-19T08:41:08;100428.03;;;16.32;47.54
12949;BME280;6539;49.476;8.484;2023-03-19T08:43:36;100426.69;;;16.36;47.52
12949;BME280;6539;49.476;8.484;2023-03-19T08:46:04;100427.25;;;16.56;46.75
12949;BME280;6539;49.476;8.484;2023-03-19T08:48:32;100426.00;;;16.70;46.29
12949;BME280;6539;49.476;8.484;2023-03-19T08:51:03;100427.69;;;16.67;46.35
12949;BME280;6539;49.476;8.484;2023-03-19T08:53:33;100427.31;;;16.78;47.15
12949;BME280;6539;49.476;8.484;2023-03-19T08:56:05;100423.44;;;16.88;45.90
12949;BME280;6539;49.476;8.484;2023-03-19T08:58:32;100430.56;;;17.11;45.18
12949;BME280;6539;49.476;8.484;2023-03-19T09:01:18;100423.53;;;17.19;44.70
12949;BME280;6539;49.476;8.484;2023-03-19T09:03:46;100426.91;;;17.14;44.41
12949;BME280;6539;49.476;8.484;2023-03-19T09:06:12;100430.75;;;17.29;44.01
12949;BME280;6539;49.476;8.484;2023-03-19T09:08:43;100433.38;;;17.32;44.21
12949;BME280;6539;49.476;8.484;2023-03-19T09:11:11;100442.03;;;17.34;43.75
12949;BME280;6539;49.476;8.484;2023-03-19T09:13:39;100436.44;;;17.13;44.12
12949;BME280;6539;49.476;8.484;2023-03-19T09:16:05;100435.59;;;17.03;44.54
12949;BME280;6539;49.476;8.484;2023-03-19T09:18:35;100435.69;;;17.00;44.58
12949;BME280;6539;49.476;8.484;2023-03-19T09:21:02;100435.16;;;17.05;44.70
12949;BME280;6539;49.476;8.484;2023-03-19T09:23:28;100432.09;;;16.90;44.45
12949;BME280;6539;49.476;8.484;2023-03-19T09:25:58;100440.09;;;16.75;45.12
12949;BME280;6539;49.476;8.484;2023-03-19T09:28:24;100435.00;;;16.74;45.07
12949;BME280;6539;49.476;8.484;2023-03-19T09:30:52;100426.78;;;16.70;43.57
12949;BME280;6539;49.476;8.484;2023-03-19T09:33:19;100434.56;;;16.75;43.60
12949;BME280;6539;49.476;8.484;2023-03-19T09:35:50;100430.66;;;16.86;42.81
12949;BME280;6539;49.476;8.484;2023-03-19T09:38:18;100430.41;;;16.80;43.05
12949;BME280;6539;49.476;8.484;2023-03-19T09:41:07;100432.88;;;16.91;42.95
12949;BME280;6539;49.476;8.484;2023-03-19T09:44:00;100440.03;;;17.01;42.97
12949;BME280;6539;49.476;8.484;2023-03-19T09:49:46;100445.66;;;17.44;41.43
12949;BME280;6539;49.476;8.484;2023-03-19T09:57:59;100447.63;;;17.56;42.83
12949;BME280;6539;49.476;8.484;2023-03-19T10:00:35;100447.63;;;17.56;42.53
12949;BME280;6539;49.476;8.484;2023-03-19T10:09:20;100448.72;;;18.72;40.44
12949;BME280;6539;49.476;8.484;2023-03-19T10:14:55;100437.53;;;19.48;37.73
12949;BME280;6539;49.476;8.484;2023-03-19T10:17:34;100441.84;;;19.86;37.43
12949;BME280;6539;49.476;8.484;2023-03-19T10:20:22;100438.75;;;20.34;35.98
12949;BME280;6539;49.476;8.484;2023-03-19T10:23:01;100426.47;;;20.50;35.98
12949;BME280;6539;49.476;8.484;2023-03-19T10:25:31;100431.97;;;20.26;35.11
12949;BME280;6539;49.476;8.484;2023-03-19T10:28:13;100443.16;;;20.08;35.95
12949;BME280;6539;49.476;8.484;2023-03-19T10:30:41;100429.91;;;19.85;36.20
12949;BME280;6539;49.476;8.484;2023-03-19T10:33:25;100424.84;;;19.65;36.18
12949;BME280;6539;49.476;8.484;2023-03-19T10:36:04;100425.84;;;19.95;35.33
12949;BME280;6539;49.476;8.484;2023-03-19T10:38:41;100420.06;;;20.17;34.69
12949;BME280;6539;49.476;8.484;2023-03-19T10:41:23;100415.94;;;20.45;33.69
12949;BME280;6539;49.476;8.484;2023-03-19T10:43:58;100420.06;;;20.59;33.80
12949;BME280;6539;49.476;8.484;2023-03-19T10:46:39;100418.88;;;20.74;33.16
12949;BME280;6539;49.476;8.484;2023-03-19T10:49:11;100415.97;;;20.69;33.20
12949;BME280;6539;49.476;8.484;2023-03-19T10:51:38;100426.66;;;20.37;33.52
12949;BME280;6539;49.476;8.484;2023-03-19T10:54:23;100431.56;;;20.01;34.21
12949;BME280;6539;49.476;8.484;2023-03-19T10:56:56;100420.78;;;19.85;34.52
12949;BME280;6539;49.476;8.484;2023-03-19T10:59:36;100420.66;;;20.30;34.83
12949;BME280;6539;49.476;8.484;2023-03-19T11:02:22;100418.03;;;20.59;34.22
12949;BME280;6539;49.476;8.484;2023-03-19T11:07:39;100421.22;;;19.92;34.08
12949;BME280;6539;49.476;8.484;2023-03-19T11:10:16;100415.41;;;19.63;34.52
12949;BME280;6539;49.476;8.484;2023-03-19T11:13:16;100418.22;;;19.45;35.29
12949;BME280;6539;49.476;8.484;2023-03-19T11:15:47;100409.38;;;19.37;35.20
12949;BME280;6539;49.476;8.484;2023-03-19T11:21:00;100414.63;;;19.08;35.88
12949;BME280;6539;49.476;8.484;2023-03-19T11:23:38;100409.34;;;19.01;36.49
12949;BME280;6539;49.476;8.484;2023-03-19T11:26:04;100413.53;;;18.96;36.90
12949;BME280;6539;49.476;8.484;2023-03-19T11:28:30;100414.31;;;18.97;37.02
12949;BME280;6539;49.476;8.484;2023-03-19T11:31:40;100407.50;;;18.89;37.24
12949;BME280;6539;49.476;8.484;2023-03-19T11:43:43;100403.81;;;18.43;38.33
12949;BME280;6539;49.476;8.484;2023-03-19T11:49:43;100402.16;;;18.46;38.60
12949;BME280;6539;49.476;8.484;2023-03-19T11:52:27;100406.09;;;18.36;38.79
12949;BME280;6539;49.476;8.484;2023-03-19T11:55:30;100400.84;;;18.38;38.96
12949;BME280;6539;49.476;8.484;2023-03-19T12:00:55;100394.28;;;18.13;38.38
12949;BME280;6539;49.476;8.484;2023-03-19T12:09:46;100391.25;;;17.90;40.01
12949;BME280;6539;49.476;8.484;2023-03-19T12:15:19;100388.41;;;17.81;42.37
12949;BME280;6539;49.476;8.484;2023-03-19T12:23:58;100394.84;;;18.39;40.89
12949;BME280;6539;49.476;8.484;2023-03-19T12:29:43;100389.22;;;18.61;38.94
12949;BME280;6539;49.476;8.484;2023-03-19T12:35:17;100389.97;;;18.52;38.61
12949;BME280;6539;49.476;8.484;2023-03-19T12:41:27;100398.00;;;18.50;39.14
12949;BME280;6539;49.476;8.484;2023-03-19T12:44:24;100389.19;;;18.52;39.07
12949;BME280;6539;49.476;8.484;2023-03-19T12:47:02;100399.38;;;18.46;39.55
12949;BME280;6539;49.476;8.484;2023-03-19T12:52:21;100400.38;;;18.30;39.74
12949;BME280;6539;49.476;8.484;2023-03-19T12:55:08;100394.53;;;18.37;40.16
12949;BME280;6539;49.476;8.484;2023-03-19T12:57:53;100394.22;;;18.35;39.88
12949;BME280;6539;49.476;8.484;2023-03-19T13:00:57;100405.78;;;18.34;40.28
12949;BME280;6539;49.476;8.484;2023-03-19T13:03:55;100394.19;;;18.26;40.80
12949;BME280;6539;49.476;8.484;2023-03-19T13:06:48;100404.47;;;18.16;41.37
12949;BME280;6539;49.476;8.484;2023-03-19T13:09:32;100404.47;;;18.16;42.13
12949;BME280;6539;49.476;8.484;2023-03-19T13:15:04;100412.81;;;18.16;43.61
12949;BME280;6539;49.476;8.484;2023-03-19T13:23:13;100416.09;;;17.93;48.70
12949;BME280;6539;49.476;8.484;2023-03-19T13:25:45;100422.13;;;17.92;50.52
12949;BME280;6539;49.476;8.484;2023-03-19T13:28:32;100429.47;;;17.86;52.13
12949;BME280;6539;49.476;8.484;2023-03-19T13:33:34;100434.31;;;17.73;54.18
12949;BME280;6539;49.476;8.484;2023-03-19T13:36:15;100438.34;;;17.72;54.74
12949;BME280;6539;49.476;8.484;2023-03-19T13:38:49;100429.88;;;17.75;54.96
12949;BME280;6539;49.476;8.484;2023-03-19T13:44:42;100440.53;;;17.77;55.90
12949;BME280;6539;49.476;8.484;2023-03-19T13:58:23;100433.00;;;17.43;57.95
12949;BME280;6539;49.476;8.484;2023-03-19T14:01:38;100425.91;;;17.42;58.40
12949;BME280;6539;49.476;8.484;2023-03-19T14:04:25;100435.78;;;17.43;58.53
12949;BME280;6539;49.476;8.484;2023-03-19T14:07:18;100431.47;;;17.42;58.96
12949;BME280;6539;49.476;8.484;2023-03-19T14:09:50;100438.13;;;17.44;58.96
12949;BME280;6539;49.476;8.484;2023-03-19T14:12:37;100431.00;;;17.43;59.16
12949;BME280;6539;49.476;8.484;2023-03-19T14:23:20;100425.91;;;17.42;60.25
12949;BME280;6539;49.476;8.484;2023-03-19T14:36:39;100415.97;;;17.75;59.25
12949;BME280;6539;49.476;8.484;2023-03-19T14:39:32;100417.22;;;17.74;58.06
12949;BME280;6539;49.476;8.484;2023-03-19T14:42:32;100419.34;;;17.70;57.52
12949;BME280;6539;49.476;8.484;2023-03-19T14:56:46;100408.69;;;17.69;56.79
12949;BME280;6539;49.476;8.484;2023-03-19T14:59:12;100409.47;;;17.69;56.75
12949;BME280;6539;49.476;8.484;2023-03-19T15:01:52;100414.22;;;17.47;56.12
12949;BME280;6539;49.476;8.484;2023-03-19T15:04:22;100410.00;;;17.42;56.87
12949;BME280;6539;49.476;8.484;2023-03-19T15:06:57;100409.38;;;17.38;56.56
12949;BME280;6539;49.476;8.484;2023-03-19T15:09:29;100400.84;;;17.33;56.00
12949;BME280;6539;49.476;8.484;2023-03-19T15:18:11;100402.56;;;17.52;55.36
12949;BME280;6539;49.476;8.484;2023-03-19T15:20:43;100403.09;;;17.60;54.96
12949;BME280;6539;49.476;8.484;2023-03-19T15:23:18;100401.06;;;17.60;54.92
12949;BME280;6539;49.476;8.484;2023-03-19T15:25:51;100399.78;;;17.52;55.44
12949;BME280;6539;49.476;8.484;2023-03-19T15:28:32;100403.88;;;17.26;55.58
12949;BME280;6539;49.476;8.484;2023-03-19T15:31:09;100394.66;;;17.29;55.69
12949;BME280;6539;49.476;8.484;2023-03-19T15:33:37;100397.84;;;17.40;55.69
12949;BME280;6539;49.476;8.484;2023-03-19T15:36:25;100400.66;;;17.49;55.38